TimeCDT,TemperatureF,Dew PointF,Humidity,Sea Level PressureIn,VisibilityMPH,Wind Direction,Wind SpeedMPH,Gust SpeedMPH,PrecipitationIn,Events,Conditions,WindDirDegrees,DateUTC
12:15 AM,45.5,33.6,63,29.98,10.0,South,8.1,-,N/A,,Clear,180,2012-10-09 05:15:00
12:35 AM,45.1,33.6,64,29.97,10.0,South,9.2,-,N/A,,Clear,180,2012-10-09 05:35:00
12:55 AM,45.5,33.8,64,29.97,10.0,South,10.4,-,N/A,,Clear,190,2012-10-09 05:55:00
1:15 AM,45.5,33.8,64,29.97,10.0,South,11.5,16.1,N/A,,Clear,190,2012-10-09 06:15:00
1:35 AM,45.1,33.8,65,29.97,10.0,South,9.2,-,N/A,,Scattered Clouds,180,2012-10-09 06:35:00
2:15 AM,44.6,34.2,67,29.96,10.0,South,9.2,-,N/A,,Clear,190,2012-10-09 07:15:00
2:35 AM,44.6,33.8,66,29.96,10.0,South,6.9,-,N/A,,Clear,180,2012-10-09 07:35:00
3:15 AM,43.7,34.7,71,29.95,10.0,South,8.1,-,N/A,,Clear,190,2012-10-09 08:15:00
3:35 AM,43.5,34.9,72,29.95,10.0,South,9.2,-,N/A,,Clear,190,2012-10-09 08:35:00
3:55 AM,43.3,35.1,73,29.95,10.0,South,8.1,-,N/A,,Clear,180,2012-10-09 08:55:00
4:15 AM,43.3,35.6,74,29.95,10.0,South,6.9,-,N/A,,Clear,180,2012-10-09 09:15:00
4:35 AM,43.0,35.6,75,29.95,10.0,South,9.2,-,N/A,,Clear,180,2012-10-09 09:35:00
4:55 AM,42.6,35.6,76,29.95,10.0,South,6.9,-,N/A,,Clear,180,2012-10-09 09:55:00
5:15 AM,42.3,35.6,77,29.95,10.0,South,6.9,-,N/A,,Clear,180,2012-10-09 10:15:00
5:35 AM,41.9,35.8,79,29.95,10.0,South,6.9,-,N/A,,Clear,180,2012-10-09 10:35:00
5:55 AM,41.9,36.0,79,29.95,10.0,South,8.1,-,N/A,,Clear,180,2012-10-09 10:55:00
6:15 AM,41.2,35.8,81,29.95,10.0,South,6.9,-,N/A,,Clear,180,2012-10-09 11:15:00
6:35 AM,41.0,36.0,82,29.95,10.0,South,8.1,-,N/A,,Clear,170,2012-10-09 11:35:00
6:55 AM,41.4,36.5,83,29.94,10.0,South,9.2,-,N/A,,Clear,180,2012-10-09 11:55:00
7:15 AM,41.9,36.7,82,29.94,10.0,South,9.2,-,N/A,,Clear,180,2012-10-09 12:15:00
7:35 AM,42.8,36.9,80,29.94,10.0,South,10.4,16.1,N/A,,Clear,180,2012-10-09 12:35:00
7:55 AM,43.9,37.4,78,29.94,10.0,South,12.7,-,N/A,,Clear,190,2012-10-09 12:55:00
8:15 AM,45.0,37.6,75,29.94,10.0,South,12.7,17.3,N/A,,Clear,190,2012-10-09 13:15:00
8:35 AM,46.4,38.5,74,29.94,10.0,South,15.0,19.6,N/A,,Clear,190,2012-10-09 13:35:00
8:55 AM,48.0,38.8,71,29.94,10.0,South,13.8,-,N/A,,Clear,190,2012-10-09 13:55:00
9:15 AM,50.0,39.6,67,29.93,10.0,SSW,17.3,20.7,N/A,,Clear,200,2012-10-09 14:15:00
9:35 AM,51.6,40.1,65,29.93,10.0,SSW,15.0,-,N/A,,Clear,200,2012-10-09 14:35:00
9:55 AM,51.6,39.9,64,29.93,10.0,SSW,16.1,-,N/A,,Clear,200,2012-10-09 14:55:00
10:15 AM,54.5,40.5,59,29.93,10.0,SSW,16.1,20.7,N/A,,Clear,200,2012-10-09 15:15:00
10:35 AM,55.8,40.5,56,29.93,10.0,SSW,18.4,21.9,N/A,,Clear,210,2012-10-09 15:35:00
10:55 AM,57.2,40.6,54,29.92,10.0,SSW,16.1,24.2,N/A,,Clear,210,2012-10-09 15:55:00
11:15 AM,59.9,40.5,49,29.92,10.0,SSW,18.4,25.3,N/A,,Clear,200,2012-10-09 16:15:00
11:35 AM,61.0,40.5,47,29.91,10.0,SSW,17.3,26.5,N/A,,Clear,200,2012-10-09 16:35:00
11:55 AM,62.8,40.8,45,29.90,10.0,SSW,17.3,-,N/A,,Clear,200,2012-10-09 16:55:00
12:15 PM,62.6,39.9,43,29.89,10.0,SSW,13.8,24.2,N/A,,Clear,210,2012-10-09 17:15:00
12:35 PM,63.5,39.7,42,29.89,10.0,SW,17.3,25.3,N/A,,Clear,220,2012-10-09 17:35:00
12:55 PM,64.0,39.6,41,29.87,10.0,SW,16.1,24.2,N/A,,Clear,230,2012-10-09 17:55:00
1:15 PM,65.1,39.2,39,29.86,10.0,SSW,15.0,-,N/A,,Clear,210,2012-10-09 18:15:00
1:35 PM,65.7,39.7,39,29.86,10.0,SSW,23.0,26.5,N/A,,Clear,210,2012-10-09 18:35:00
1:55 PM,65.5,40.5,40,29.86,10.0,SW,21.9,27.6,N/A,,Clear,220,2012-10-09 18:55:00
2:15 PM,66.0,41.5,41,29.85,10.0,SSW,19.6,25.3,N/A,,Clear,210,2012-10-09 19:15:00
2:35 PM,65.3,40.8,41,29.85,10.0,SSW,18.4,26.5,N/A,,Clear,210,2012-10-09 19:35:00
2:55 PM,64.6,40.3,41,29.84,10.0,SW,15.0,27.6,N/A,,Clear,230,2012-10-09 19:55:00
3:15 PM,64.6,40.8,42,29.83,10.0,SSW,23.0,28.8,N/A,,Clear,210,2012-10-09 20:15:00
3:35 PM,65.3,41.5,42,29.84,10.0,SSW,18.4,21.9,N/A,,Clear,210,2012-10-09 20:35:00
3:55 PM,64.6,41.0,42,29.84,10.0,SW,18.4,25.3,N/A,,Scattered Clouds,220,2012-10-09 20:55:00
4:15 PM,63.7,41.0,43,29.84,10.0,WSW,17.3,25.3,N/A,,Mostly Cloudy,240,2012-10-09 21:15:00
4:35 PM,63.5,40.8,43,29.84,10.0,SW,15.0,21.9,N/A,,Overcast,230,2012-10-09 21:35:00
4:55 PM,59.5,39.7,48,29.86,10.0,WNW,16.1,23.0,N/A,,Overcast,300,2012-10-09 21:55:00
5:15 PM,58.8,39.7,49,29.86,10.0,WNW,11.5,-,N/A,,Overcast,290,2012-10-09 22:15:00
5:35 PM,58.3,39.6,50,29.86,10.0,West,9.2,-,N/A,,Overcast,280,2012-10-09 22:35:00
5:55 PM,57.7,40.1,52,29.87,10.0,NW,16.1,20.7,N/A,,Overcast,310,2012-10-09 22:55:00
6:15 PM,53.6,41.9,65,29.89,10.0,NW,17.3,27.6,N/A,,Overcast,320,2012-10-09 23:15:00
6:35 PM,51.8,40.1,64,29.90,10.0,NNW,18.4,24.2,N/A,,Overcast,330,2012-10-09 23:35:00
6:55 PM,48.7,41.9,77,29.93,10.0,NNW,13.8,21.9,N/A,Rain,Rain,330,2012-10-09 23:55:00
7:15 PM,46.6,43.2,88,29.94,7.0,NW,11.5,16.1,N/A,Rain,Rain,310,2012-10-10 00:15:00
7:35 PM,45.5,42.8,90,29.94,5.0,NNW,13.8,-,N/A,Rain,Heavy Rain,340,2012-10-10 00:35:00
7:55 PM,44.8,42.1,90,29.95,10.0,NW,11.5,17.3,N/A,Rain,Rain,320,2012-10-10 00:55:00
8:15 PM,44.2,41.5,90,29.96,10.0,NW,8.1,17.3,N/A,Rain,Light Rain,320,2012-10-10 01:15:00
8:35 PM,44.1,41.9,92,29.96,10.0,NW,4.6,-,N/A,Rain,Rain,320,2012-10-10 01:35:00
8:55 PM,44.1,41.9,92,29.96,10.0,NW,4.6,-,N/A,,Drizzle,320,2012-10-10 01:55:00
9:15 PM,43.9,42.1,93,29.96,10.0,NW,4.6,-,N/A,Rain,Light Rain,320,2012-10-10 02:15:00
9:35 PM,43.9,42.3,94,29.96,10.0,WNW,3.5,-,N/A,Rain,Light Rain,290,2012-10-10 02:35:00
9:55 PM,44.1,42.1,93,29.97,10.0,West,4.6,-,N/A,,Light Drizzle,270,2012-10-10 02:55:00
10:15 PM,43.9,41.9,93,29.98,10.0,West,4.6,-,N/A,Rain,Light Rain,270,2012-10-10 03:15:00
10:35 PM,43.9,41.7,92,29.98,10.0,West,5.8,-,N/A,,Overcast,260,2012-10-10 03:35:00
10:55 PM,43.5,41.4,92,29.99,10.0,West,5.8,-,N/A,,Overcast,270,2012-10-10 03:55:00
11:15 PM,42.8,40.6,92,29.99,10.0,West,6.9,-,N/A,,Mostly Cloudy,270,2012-10-10 04:15:00
11:35 PM,41.4,39.4,93,29.99,10.0,West,6.9,-,N/A,,Scattered Clouds,280,2012-10-10 04:35:00
11:55 PM,40.3,38.5,93,30.00,10.0,West,6.9,-,N/A,,Clear,270,2012-10-10 04:55:00